Terminal Aerodrome Forecast
Issued by NWS North Platte, NE

Home | Current Version | Previous Version | Text Only | Print | Product List | Glossary On
Versions: 1 2 3 4 5 6 7 8 9 10 11 12 13
520
FTUS43 KLBF 110230 AAA
TAFVTN
TAF AMD
KVTN 110230Z 1103/1124 03009KT P6SM SCT015
     FM110305 05007KT P6SM OVC015
      TEMPO 1108/1112 5SM BR OVC012
     FM111200 16006KT P6SM OVC015
     FM112000 27010KT P6SM OVC070=

USA.gov is the U.S. government's official web portal to all federal, state and local government web resources and services.